createdAt,value
2019-05-22T00:01:55.693Z,31.87
2019-05-22T00:04:31.066Z,33.73
2019-05-22T00:07:06.318Z,33.42
2019-05-22T00:09:44.578Z,31.42
2019-05-22T00:12:19.240Z,34.80
2019-05-22T00:14:56.209Z,32.75
2019-05-22T00:17:30.926Z,31.68
2019-05-22T00:20:06.566Z,29.37
2019-05-22T00:22:42.143Z,31.75
2019-05-22T00:25:23.652Z,31.25
2019-05-22T00:30:33.587Z,32.85
2019-05-22T00:33:08.020Z,34.67
2019-05-22T00:35:42.320Z,30.52
2019-05-22T00:38:17.791Z,32.05
2019-05-22T00:40:57.564Z,31.23
2019-05-22T00:43:31.564Z,34.70
2019-05-22T00:46:05.414Z,32.90
2019-05-22T00:48:41.847Z,35.28
2019-05-22T00:51:26.526Z,33.35
2019-05-22T00:54:19.155Z,34.15
2019-05-22T00:56:58.037Z,37.30
2019-05-22T00:59:36.186Z,35.35
2019-05-22T01:02:14.979Z,39.50
2019-05-22T01:04:50.187Z,37.70
2019-05-22T01:07:30.073Z,39.33
2019-05-22T01:10:06.815Z,36.48
2019-05-22T01:12:43.066Z,38.90
2019-05-22T01:15:20.872Z,40.05
2019-05-22T01:17:56.557Z,43.25
2019-05-22T01:20:30.386Z,41.25
2019-05-22T01:23:03.957Z,38.48
2019-05-22T01:25:38.854Z,38.25
2019-05-22T01:28:14.163Z,40.50
2019-05-22T01:30:50.137Z,43.98
2019-05-22T01:33:26.606Z,44.40
2019-05-22T01:36:02.380Z,46.73
2019-05-22T01:38:39.003Z,48.63
2019-05-22T01:41:17.370Z,43.92
2019-05-22T01:43:52.178Z,46.18
2019-05-22T01:46:29.051Z,43.68
2019-05-22T01:49:04.131Z,48.92
2019-05-22T01:51:38.814Z,46.05
2019-05-22T01:54:12.720Z,48.08
2019-05-22T01:56:46.380Z,43.63
2019-05-22T01:59:20.188Z,42.25
2019-05-22T02:01:54.539Z,39.35
2019-05-22T02:04:28.077Z,38.02
2019-05-22T02:07:03.309Z,41.95
2019-05-22T02:09:37.957Z,38.63
2019-05-22T02:12:21.769Z,42.00
2019-05-22T02:14:56.286Z,41.02
2019-05-22T02:17:33.310Z,48.05
2019-05-22T02:20:08.818Z,45.70
2019-05-22T02:22:43.182Z,43.87
2019-05-22T02:25:17.469Z,43.98
2019-05-22T02:27:51.786Z,50.00
2019-05-22T02:30:27.604Z,49.55
2019-05-22T02:33:02.073Z,46.15
2019-05-22T02:35:36.664Z,49.90
2019-05-22T02:38:10.505Z,50.52
2019-05-22T02:40:46.236Z,49.38
2019-05-22T02:43:21.998Z,51.45
2019-05-22T02:45:56.254Z,48.45
2019-05-22T02:48:30.949Z,48.48
2019-05-22T02:51:04.508Z,42.62
2019-05-22T02:53:38.540Z,44.35
2019-05-22T02:56:12.553Z,39.88
2019-05-22T02:58:46.380Z,39.85
2019-05-22T03:01:20.228Z,38.55
2019-05-22T03:03:53.737Z,37.35
2019-05-22T03:06:28.031Z,42.60
2019-05-22T03:09:18.158Z,37.90
2019-05-22T03:11:55.461Z,37.75
2019-05-22T03:14:31.559Z,42.65
2019-05-22T03:17:09.760Z,39.95
2019-05-22T03:19:47.287Z,39.20
2019-05-22T03:22:31.167Z,41.15
2019-05-22T03:25:08.359Z,36.90
2019-05-22T03:27:45.399Z,44.03
2019-05-22T03:30:27.475Z,45.03
2019-05-22T03:33:04.374Z,42.27
2019-05-22T03:35:50.741Z,45.78
2019-05-22T03:38:25.800Z,43.13
2019-05-22T03:40:59.887Z,47.73
2019-05-22T03:43:35.279Z,50.40
2019-05-22T03:46:33.352Z,46.10
2019-05-22T03:49:27.505Z,47.58
2019-05-22T03:51:47.474Z,42.33
2019-05-22T03:54:21.917Z,48.58
2019-05-22T03:56:55.531Z,45.98
2019-05-22T03:59:29.238Z,43.55
2019-05-22T04:02:03.766Z,43.38
2019-05-22T04:04:39.894Z,40.75
2019-05-22T04:07:15.121Z,41.60
2019-05-22T04:09:49.544Z,43.63
2019-05-22T04:12:23.803Z,47.83
2019-05-22T04:14:58.279Z,40.17
2019-05-22T04:17:32.530Z,44.67
2019-05-22T04:20:07.814Z,39.63
2019-05-22T04:22:42.738Z,40.92
2019-05-22T04:25:17.236Z,38.65
2019-05-22T04:28:10.035Z,41.55
2019-05-22T04:30:44.161Z,42.35
2019-05-22T04:33:18.876Z,43.13
2019-05-22T04:35:54.255Z,42.03
2019-05-22T04:38:28.115Z,39.38
2019-05-22T04:41:04.628Z,45.45
2019-05-22T04:43:38.404Z,44.15
2019-05-22T04:46:13.382Z,45.95
2019-05-22T04:48:47.226Z,41.53
2019-05-22T04:51:25.149Z,48.15
2019-05-22T04:53:59.226Z,45.50
2019-05-22T04:56:32.771Z,42.40
2019-05-22T04:59:06.817Z,39.73
2019-05-22T05:01:40.427Z,39.78
2019-05-22T05:04:14.988Z,40.73
2019-05-22T05:06:48.711Z,39.78
2019-05-22T05:09:24.304Z,35.90
2019-05-22T05:11:59.272Z,34.38
2019-05-22T05:14:32.888Z,34.40
2019-05-22T05:17:07.907Z,39.50
2019-05-22T05:19:41.574Z,36.30
2019-05-22T05:22:18.050Z,34.58
2019-05-22T05:24:51.714Z,34.27
2019-05-22T05:27:25.984Z,37.40
2019-05-22T05:29:59.568Z,37.65
2019-05-22T05:32:33.962Z,38.83
2019-05-22T05:35:08.323Z,34.60
2019-05-22T05:37:42.886Z,32.25
2019-05-22T05:40:46.464Z,35.58
2019-05-22T05:43:21.665Z,32.28
2019-05-22T05:46:01.568Z,36.35
2019-05-22T05:48:36.014Z,30.50
2019-05-22T05:51:17.013Z,32.83
2019-05-22T05:54:00.035Z,32.28
2019-05-22T05:56:35.638Z,29.42
2019-05-22T05:59:11.982Z,29.63
2019-05-22T06:01:47.385Z,28.77
2019-05-22T06:04:34.887Z,31.70
2019-05-22T06:07:19.306Z,29.15
2019-05-22T06:09:56.251Z,29.00
2019-05-22T06:12:30.562Z,34.67
2019-05-22T06:15:05.377Z,33.20
2019-05-22T06:17:57.538Z,31.87
2019-05-22T06:20:31.480Z,32.55
2019-05-22T06:23:17.294Z,29.10
2019-05-22T06:25:52.510Z,31.37
2019-05-22T06:28:29.510Z,31.30
2019-05-22T06:31:05.789Z,33.18
2019-05-22T06:33:39.832Z,34.50
2019-05-22T06:36:14.480Z,31.85
2019-05-22T06:39:00.862Z,29.65
2019-05-22T06:41:35.972Z,28.05
2019-05-22T06:44:31.123Z,30.50
2019-05-22T06:47:07.382Z,29.70
2019-05-22T06:49:42.347Z,26.52
2019-05-22T06:52:16.500Z,25.80
2019-05-22T06:54:50.848Z,27.45
2019-05-22T06:57:26.647Z,28.57
2019-05-22T07:00:13.128Z,26.73
2019-05-22T07:02:37.658Z,26.05
2019-05-22T07:05:12.336Z,28.83
2019-05-22T07:07:46.656Z,31.25
2019-05-22T07:10:20.809Z,32.55
2019-05-22T07:12:54.778Z,29.70
2019-05-22T07:15:31.172Z,27.77
2019-05-22T07:18:05.579Z,25.10
2019-05-22T07:20:40.295Z,27.15
2019-05-22T07:23:15.832Z,27.50
2019-05-22T07:25:51.876Z,24.85
2019-05-22T07:28:26.895Z,25.30
2019-05-22T07:31:01.305Z,27.15
2019-05-22T07:33:35.217Z,24.75
2019-05-22T07:36:12.169Z,24.27
2019-05-22T07:38:44.367Z,24.20
2019-05-22T07:41:18.187Z,30.02
2019-05-22T07:43:51.814Z,25.30
2019-05-22T07:46:25.475Z,26.33
2019-05-22T07:48:59.714Z,24.45
2019-05-22T07:51:50.445Z,22.80
2019-05-22T07:54:10.447Z,23.07
2019-05-22T07:56:44.860Z,22.30
2019-05-22T07:59:18.405Z,24.27
2019-05-22T08:01:52.427Z,27.17
2019-05-22T08:04:26.874Z,25.40
2019-05-22T08:07:00.460Z,28.00
2019-05-22T08:09:34.082Z,22.52
2019-05-22T08:12:11.283Z,25.23
2019-05-22T08:14:45.286Z,24.80
2019-05-22T08:17:20.446Z,25.40
2019-05-22T08:19:54.247Z,24.55
2019-05-22T08:22:29.856Z,26.68
2019-05-22T08:25:04.712Z,27.55
2019-05-22T08:27:39.382Z,24.98
2019-05-22T08:30:13.560Z,26.30
2019-05-22T08:32:47.980Z,27.48
2019-05-22T08:35:22.054Z,24.12
2019-05-22T08:37:57.944Z,25.17
2019-05-22T08:40:32.849Z,24.12
2019-05-22T08:43:07.401Z,24.30
2019-05-22T08:45:40.940Z,26.77
2019-05-22T08:48:15.082Z,23.05
2019-05-22T08:50:49.625Z,23.95
2019-05-22T08:53:24.975Z,18.23
2019-05-22T08:55:59.660Z,19.48
2019-05-22T08:58:34.778Z,20.92
2019-05-22T09:01:10.393Z,20.17
2019-05-22T09:03:44.734Z,21.20
2019-05-22T09:06:18.525Z,19.15
2019-05-22T09:08:52.241Z,20.62
2019-05-22T09:11:25.853Z,17.77
2019-05-22T09:13:59.561Z,18.40
2019-05-22T09:16:33.981Z,17.20
2019-05-22T09:19:08.068Z,17.23
2019-05-22T09:21:41.889Z,15.28
2019-05-22T09:24:17.521Z,18.20
2019-05-22T09:26:51.495Z,18.87
2019-05-22T09:29:25.202Z,18.70
2019-05-22T09:31:59.030Z,15.13
2019-05-22T09:34:33.544Z,17.90
2019-05-22T09:37:07.700Z,18.70
2019-05-22T09:39:41.532Z,22.35
2019-05-22T09:42:15.918Z,14.07
2019-05-22T09:44:49.437Z,15.75
2019-05-22T09:47:24.950Z,14.68
2019-05-22T09:49:58.870Z,15.43
2019-05-22T09:52:32.422Z,14.30
2019-05-22T09:55:06.876Z,16.70
2019-05-22T09:57:40.493Z,16.42
2019-05-22T10:00:15.349Z,13.78
2019-05-22T10:02:49.098Z,11.75
2019-05-22T10:05:23.058Z,16.10
2019-05-22T10:08:01.396Z,16.73
2019-05-22T10:10:33.920Z,16.75
2019-05-22T10:13:07.462Z,18.02
2019-05-22T10:15:47.395Z,15.32
2019-05-22T10:18:21.338Z,13.10
2019-05-22T10:20:55.312Z,10.15
2019-05-22T10:23:30.516Z,11.30
2019-05-22T10:26:04.558Z,15.72
2019-05-22T10:28:39.165Z,11.43
2019-05-22T10:31:16.789Z,13.48
2019-05-22T10:33:51.913Z,15.18
2019-05-22T10:36:24.291Z,14.35
2019-05-22T10:38:57.915Z,11.30
2019-05-22T10:41:31.505Z,13.20
2019-05-22T10:44:06.392Z,12.80
2019-05-22T10:46:40.407Z,14.03
2019-05-22T10:49:14.213Z,14.93
2019-05-22T10:51:47.805Z,13.98
2019-05-22T10:54:21.592Z,15.60
2019-05-22T10:57:05.887Z,12.98
2019-05-22T10:59:39.502Z,13.10
2019-05-22T11:02:13.432Z,10.10
2019-05-22T11:04:46.980Z,14.47
2019-05-22T11:07:20.685Z,11.85
2019-05-22T11:09:54.833Z,10.98
2019-05-22T11:12:28.768Z,12.18
2019-05-22T11:15:02.315Z,10.30
2019-05-22T11:17:35.904Z,11.93
2019-05-22T11:20:12.273Z,10.28
2019-05-22T11:22:46.587Z,10.00
2019-05-22T11:25:22.372Z,10.58
2019-05-22T11:27:56.033Z,12.85
2019-05-22T11:30:30.906Z,10.50
2019-05-22T11:33:05.558Z,11.93
2019-05-22T11:35:39.149Z,9.75
2019-05-22T11:38:12.801Z,9.38
2019-05-22T11:40:46.810Z,7.55
2019-05-22T11:43:20.443Z,9.33
2019-05-22T11:45:54.326Z,7.67
2019-05-22T11:48:28.433Z,7.37
2019-05-22T11:51:02.627Z,9.23
2019-05-22T11:53:36.663Z,10.18
2019-05-22T11:56:10.389Z,6.15
2019-05-22T11:58:43.885Z,6.87
2019-05-22T12:01:18.057Z,5.58
2019-05-22T12:03:51.529Z,5.90
2019-05-22T12:06:26.041Z,9.03
2019-05-22T12:08:59.664Z,6.60
2019-05-22T12:11:33.229Z,9.10
2019-05-22T12:14:08.112Z,7.92
2019-05-22T12:16:42.094Z,7.08
2019-05-22T12:19:16.577Z,6.97
2019-05-22T12:21:50.362Z,7.90
2019-05-22T12:24:28.387Z,6.75
2019-05-22T12:26:59.441Z,7.10
2019-05-22T12:29:33.387Z,8.88
2019-05-22T12:32:07.036Z,6.62
2019-05-22T12:34:42.970Z,8.93
2019-05-22T12:37:16.842Z,6.42
2019-05-22T12:39:50.443Z,6.15
2019-05-22T12:42:25.408Z,9.45
2019-05-22T12:44:59.160Z,6.92
2019-05-22T12:47:33.189Z,8.40
2019-05-22T12:50:08.220Z,9.15
2019-05-22T12:52:45.582Z,6.50
2019-05-22T12:55:21.503Z,6.62
2019-05-22T12:57:55.853Z,7.30
2019-05-22T13:00:30.336Z,5.83
2019-05-22T13:03:04.955Z,5.95
2019-05-22T13:05:39.560Z,7.62
2019-05-22T13:08:14.294Z,6.55
2019-05-22T13:10:48.919Z,4.83
2019-05-22T13:13:23.760Z,4.83
2019-05-22T13:15:59.544Z,5.15
2019-05-22T13:18:35.800Z,3.55
2019-05-22T13:21:12.332Z,7.10
2019-05-22T13:23:48.042Z,7.12
2019-05-22T13:26:24.342Z,6.08
2019-05-22T13:28:58.153Z,4.58
2019-05-22T13:31:32.534Z,6.83
2019-05-22T13:34:06.541Z,6.45
2019-05-22T13:36:41.030Z,7.08
2019-05-22T13:39:17.089Z,7.50
2019-05-22T13:41:51.363Z,8.80
2019-05-22T13:44:25.645Z,5.83
2019-05-22T13:46:59.191Z,7.30
2019-05-22T13:49:34.767Z,5.70
2019-05-22T13:52:08.904Z,11.12
2019-05-22T13:54:44.642Z,7.95
2019-05-22T13:57:18.422Z,8.88
2019-05-22T13:59:52.423Z,7.78
2019-05-22T14:02:27.319Z,6.12
2019-05-22T14:05:01.111Z,7.45
2019-05-22T14:07:34.960Z,8.13
2019-05-22T14:10:09.822Z,5.12
2019-05-22T14:12:43.739Z,4.03
2019-05-22T14:15:18.026Z,5.83
2019-05-22T14:17:51.939Z,4.58
2019-05-22T14:20:26.352Z,5.97
2019-05-22T14:23:00.155Z,7.28
2019-05-22T14:25:34.078Z,4.78
2019-05-22T14:28:08.748Z,8.60
2019-05-22T14:30:44.048Z,4.08
2019-05-22T14:33:17.843Z,7.45
2019-05-22T14:35:52.643Z,9.63
2019-05-22T14:38:26.753Z,6.62
2019-05-22T14:41:01.867Z,8.90
2019-05-22T14:43:38.560Z,6.78
2019-05-22T14:46:12.425Z,5.47
2019-05-22T14:48:46.072Z,6.05
2019-05-22T14:51:21.325Z,4.45
2019-05-22T14:53:56.516Z,7.25
2019-05-22T14:56:30.290Z,5.40
2019-05-22T14:59:05.383Z,8.05
2019-05-22T15:01:39.321Z,6.35
2019-05-22T15:04:13.445Z,3.45
2019-05-22T15:06:47.098Z,6.25
2019-05-22T15:09:21.012Z,9.50
2019-05-22T15:11:54.608Z,7.40
2019-05-22T15:14:28.228Z,4.55
2019-05-22T15:17:01.852Z,6.85
2019-05-22T15:19:36.428Z,6.67
2019-05-22T15:22:10.652Z,6.00
2019-05-22T15:24:44.443Z,7.42
2019-05-22T15:27:18.425Z,5.40
2019-05-22T15:29:52.188Z,6.90
2019-05-22T15:32:26.116Z,6.87
2019-05-22T15:34:59.929Z,5.95
2019-05-22T15:37:34.538Z,6.92
2019-05-22T15:40:10.320Z,8.05
2019-05-22T15:42:45.667Z,2.83
2019-05-22T15:45:25.839Z,4.67
2019-05-22T15:48:02.983Z,6.87
2019-05-22T15:50:39.074Z,3.72
2019-05-22T15:53:15.323Z,4.20
2019-05-22T15:55:50.384Z,5.87
2019-05-22T15:58:27.602Z,4.05
2019-05-22T16:01:02.246Z,6.75
2019-05-22T16:03:36.057Z,5.12
2019-05-22T16:06:10.713Z,5.35
2019-05-22T16:08:44.391Z,6.60
2019-05-22T16:11:18.739Z,6.65
2019-05-22T16:13:54.408Z,4.62
2019-05-22T16:16:30.398Z,4.83
2019-05-22T16:19:07.541Z,6.65
2019-05-22T16:21:44.067Z,4.33
2019-05-22T16:24:18.489Z,6.53
2019-05-22T16:26:52.577Z,6.17
2019-05-22T16:29:27.431Z,3.77
2019-05-22T16:32:04.428Z,5.87
2019-05-22T16:34:40.827Z,7.90
2019-05-22T16:37:15.529Z,6.25
2019-05-22T16:39:50.477Z,3.02
2019-05-22T16:42:24.497Z,6.58
2019-05-22T16:44:58.815Z,3.72
2019-05-22T16:47:33.608Z,3.85
2019-05-22T16:50:09.877Z,5.45
2019-05-22T16:52:46.073Z,7.67
2019-05-22T16:55:21.832Z,3.00
2019-05-22T16:57:55.783Z,4.92
2019-05-22T17:00:30.617Z,3.17
2019-05-22T17:03:04.996Z,4.90
2019-05-22T17:05:39.488Z,7.25
2019-05-22T17:08:13.737Z,6.10
2019-05-22T17:10:50.394Z,8.05
2019-05-22T17:13:24.216Z,3.95
2019-05-22T17:15:59.525Z,3.55
2019-05-22T17:18:46.610Z,4.58
2019-05-22T17:21:09.743Z,5.75
2019-05-22T17:23:45.568Z,5.92
2019-05-22T17:26:21.083Z,6.78
2019-05-22T17:28:55.397Z,5.08
2019-05-22T17:31:29.707Z,4.15
2019-05-22T17:34:03.907Z,5.28
2019-05-22T17:36:38.517Z,3.47
2019-05-22T17:39:13.587Z,4.95
2019-05-22T17:41:47.448Z,5.40
2019-05-22T17:44:21.394Z,6.33
2019-05-22T17:46:55.887Z,5.17
2019-05-22T17:49:32.044Z,6.87
2019-05-22T17:52:06.871Z,3.72
2019-05-22T17:54:41.584Z,5.28
2019-05-22T17:57:15.483Z,7.85
2019-05-22T17:59:49.298Z,3.70
2019-05-22T18:02:24.792Z,7.17
2019-05-22T18:04:58.824Z,4.55
2019-05-22T18:07:32.662Z,4.90
2019-05-22T18:10:10.321Z,5.35
2019-05-22T18:12:43.988Z,8.75
2019-05-22T18:15:18.868Z,7.22
2019-05-22T18:17:52.372Z,4.97
2019-05-22T18:20:41.688Z,5.37
2019-05-22T18:23:04.180Z,6.75
2019-05-22T18:25:38.442Z,3.95
2019-05-22T18:28:12.534Z,4.50
2019-05-22T18:30:46.616Z,7.95
2019-05-22T18:33:20.267Z,8.73
2019-05-22T18:35:53.809Z,8.05
2019-05-22T18:38:27.409Z,4.87
2019-05-22T18:41:00.986Z,4.70
2019-05-22T18:43:34.916Z,4.95
2019-05-22T18:46:09.661Z,5.53
2019-05-22T18:48:44.143Z,6.33
2019-05-22T18:51:18.114Z,4.58
2019-05-22T18:53:51.799Z,6.72
2019-05-22T18:56:25.673Z,6.47
2019-05-22T18:58:59.456Z,4.70
2019-05-22T19:01:33.116Z,5.62
2019-05-22T19:04:07.093Z,5.87
2019-05-22T19:06:40.645Z,6.45
2019-05-22T19:09:15.886Z,5.90
2019-05-22T19:11:49.433Z,9.05
2019-05-22T19:14:23.558Z,7.40
2019-05-22T19:16:57.483Z,9.93
2019-05-22T19:19:31.157Z,8.43
2019-05-22T19:22:05.290Z,10.55
2019-05-22T19:24:38.896Z,9.33
2019-05-22T19:27:12.502Z,9.63
2019-05-22T19:29:46.096Z,7.22
2019-05-22T19:32:19.734Z,12.43
2019-05-22T19:34:53.438Z,5.92
2019-05-22T19:37:27.036Z,7.70
2019-05-22T19:40:00.994Z,9.63
2019-05-22T19:42:34.883Z,9.88
2019-05-22T19:45:10.733Z,8.73
2019-05-22T19:47:52.956Z,9.80
2019-05-22T19:50:26.996Z,7.87
2019-05-22T19:53:17.366Z,7.80
2019-05-22T19:55:36.518Z,7.15
2019-05-22T19:58:10.792Z,14.28
2019-05-22T20:00:45.306Z,11.12
2019-05-22T20:03:19.144Z,9.53
2019-05-22T20:05:52.880Z,9.33
2019-05-22T20:08:26.624Z,7.20
2019-05-22T20:11:00.567Z,8.50
2019-05-22T20:13:34.485Z,10.55
2019-05-22T20:16:09.036Z,8.98
2019-05-22T20:18:42.845Z,9.15
2019-05-22T20:21:17.105Z,6.87
2019-05-22T20:23:50.838Z,11.00
2019-05-22T20:26:24.892Z,12.10
2019-05-22T20:28:58.876Z,10.48
2019-05-22T20:31:32.389Z,9.48
2019-05-22T20:34:06.209Z,9.28
2019-05-22T20:36:41.550Z,13.20
2019-05-22T20:39:16.393Z,8.63
2019-05-22T20:41:50.428Z,9.50
2019-05-22T20:44:24.095Z,11.30
2019-05-22T20:46:57.631Z,9.35
2019-05-22T20:49:31.680Z,8.85
2019-05-22T20:52:10.625Z,10.43
2019-05-22T20:54:43.438Z,10.55
2019-05-22T20:57:20.056Z,9.05
2019-05-22T20:59:54.002Z,10.65
2019-05-22T21:02:30.128Z,8.45
2019-05-22T21:05:06.209Z,10.72
2019-05-22T21:07:48.977Z,11.08
2019-05-22T21:10:23.384Z,11.00
2019-05-22T21:12:57.855Z,10.15
2019-05-22T21:15:31.682Z,7.97
2019-05-22T21:18:05.738Z,12.15
2019-05-22T21:20:53.554Z,15.13
2019-05-22T21:23:16.926Z,8.20
2019-05-22T21:25:50.678Z,11.60
2019-05-22T21:28:25.650Z,8.78
2019-05-22T21:31:00.756Z,10.50
2019-05-22T21:33:34.432Z,11.20
2019-05-22T21:36:12.461Z,13.70
2019-05-22T21:38:47.091Z,11.55
2019-05-22T21:41:22.095Z,9.63
2019-05-22T21:43:56.206Z,13.10
2019-05-22T21:46:30.041Z,14.95
2019-05-22T21:49:04.782Z,12.03
2019-05-22T21:51:38.812Z,12.78
2019-05-22T21:54:13.318Z,16.60
2019-05-22T21:56:47.216Z,12.65
2019-05-22T21:59:20.776Z,13.13
2019-05-22T22:01:56.421Z,14.30
2019-05-22T22:04:32.627Z,10.53
2019-05-22T22:07:06.987Z,14.90
2019-05-22T22:09:40.671Z,11.48
2019-05-22T22:12:17.178Z,10.05
2019-05-22T22:14:51.369Z,14.60
2019-05-22T22:17:26.543Z,13.18
2019-05-22T22:20:01.395Z,12.05
2019-05-22T22:22:35.399Z,11.70
2019-05-22T22:25:11.129Z,15.30
2019-05-22T22:27:45.037Z,10.85
2019-05-22T22:30:22.769Z,11.10
2019-05-22T22:32:58.485Z,13.20
2019-05-22T22:35:32.423Z,15.23
2019-05-22T22:38:06.942Z,12.78
2019-05-22T22:40:42.256Z,13.08
2019-05-22T22:43:16.396Z,13.55
2019-05-22T22:45:54.965Z,11.33
2019-05-22T22:48:32.271Z,18.30
2019-05-22T22:51:09.284Z,11.50
2019-05-22T22:53:44.487Z,13.03
2019-05-22T22:56:18.658Z,13.85
2019-05-22T22:58:52.739Z,14.33
2019-05-22T23:01:30.897Z,12.73
2019-05-22T23:04:07.917Z,11.55
2019-05-22T23:06:43.119Z,11.75
2019-05-22T23:09:18.305Z,14.33
2019-05-22T23:11:53.019Z,12.78
2019-05-22T23:14:27.639Z,14.20
2019-05-22T23:17:01.498Z,12.33
2019-05-22T23:19:37.926Z,13.78
2019-05-22T23:22:11.912Z,14.50
2019-05-22T23:24:46.119Z,12.23
2019-05-22T23:27:21.243Z,14.53
2019-05-22T23:29:56.131Z,12.35
2019-05-22T23:32:31.039Z,11.97
2019-05-22T23:35:05.641Z,11.63
2019-05-22T23:37:41.182Z,13.05
2019-05-22T23:40:17.706Z,11.95
2019-05-22T23:42:51.357Z,14.83
2019-05-22T23:45:25.568Z,14.15
2019-05-22T23:48:12.175Z,17.50
2019-05-22T23:50:47.469Z,14.85
2019-05-22T23:53:24.095Z,15.48
2019-05-22T23:55:57.742Z,13.20
2019-05-22T23:58:32.666Z,17.57
